sensor_id;sensor_type;location;lat;lon;timestamp;P1;durP1;ratioP1;P2;durP2;ratioP2
3333;SDS011;1679;50.392;8.008;2023-03-01T00:01:22;22.50;;;13.13;;
3333;SDS011;1679;50.392;8.008;2023-03-01T00:03:50;17.70;;;11.93;;
3333;SDS011;1679;50.392;8.008;2023-03-01T00:06:16;24.87;;;13.90;;
3333;SDS011;1679;50.392;8.008;2023-03-01T00:08:42;21.47;;;13.20;;
3333;SDS011;1679;50.392;8.008;2023-03-01T00:11:15;18.00;;;13.20;;
3333;SDS011;1679;50.392;8.008;2023-03-01T00:13:42;20.23;;;12.43;;
3333;SDS011;1679;50.392;8.008;2023-03-01T00:16:09;22.37;;;10.77;;
3333;SDS011;1679;50.392;8.008;2023-03-01T00:18:37;15.07;;;10.70;;
3333;SDS011;1679;50.392;8.008;2023-03-01T00:21:03;14.20;;;10.97;;
3333;SDS011;1679;50.392;8.008;2023-03-01T00:23:30;16.60;;;10.57;;
3333;SDS011;1679;50.392;8.008;2023-03-01T00:25:56;14.97;;;11.37;;
3333;SDS011;1679;50.392;8.008;2023-03-01T00:28:22;15.67;;;11.67;;
3333;SDS011;1679;50.392;8.008;2023-03-01T00:30:48;17.40;;;11.20;;
3333;SDS011;1679;50.392;8.008;2023-03-01T00:33:15;19.67;;;12.40;;
3333;SDS011;1679;50.392;8.008;2023-03-01T00:35:40;18.10;;;11.70;;
3333;SDS011;1679;50.392;8.008;2023-03-01T00:38:06;18.23;;;12.40;;
3333;SDS011;1679;50.392;8.008;2023-03-01T00:40:32;17.00;;;12.23;;
3333;SDS011;1679;50.392;8.008;2023-03-01T00:43:00;16.27;;;12.10;;
3333;SDS011;1679;50.392;8.008;2023-03-01T00:45:26;17.80;;;11.80;;
3333;SDS011;1679;50.392;8.008;2023-03-01T00:47:52;20.30;;;12.47;;
3333;SDS011;1679;50.392;8.008;2023-03-01T00:50:18;16.63;;;12.27;;
3333;SDS011;1679;50.392;8.008;2023-03-01T00:52:44;15.33;;;11.63;;
3333;SDS011;1679;50.392;8.008;2023-03-01T00:55:10;21.60;;;13.27;;
3333;SDS011;1679;50.392;8.008;2023-03-01T00:57:36;26.10;;;15.27;;
3333;SDS011;1679;50.392;8.008;2023-03-01T01:00:02;25.77;;;15.87;;
3333;SDS011;1679;50.392;8.008;2023-03-01T01:02:31;24.20;;;14.33;;
3333;SDS011;1679;50.392;8.008;2023-03-01T01:04:57;23.63;;;14.67;;
3333;SDS011;1679;50.392;8.008;2023-03-01T01:07:24;19.30;;;13.70;;
3333;SDS011;1679;50.392;8.008;2023-03-01T01:09:50;21.60;;;14.07;;
3333;SDS011;1679;50.392;8.008;2023-03-01T01:12:15;19.77;;;14.10;;
3333;SDS011;1679;50.392;8.008;2023-03-01T01:14:41;17.47;;;12.73;;
3333;SDS011;1679;50.392;8.008;2023-03-01T01:17:06;17.90;;;12.93;;
3333;SDS011;1679;50.392;8.008;2023-03-01T01:19:32;19.50;;;13.50;;
3333;SDS011;1679;50.392;8.008;2023-03-01T01:21:57;21.40;;;15.00;;
3333;SDS011;1679;50.392;8.008;2023-03-01T01:24:23;32.90;;;16.40;;
3333;SDS011;1679;50.392;8.008;2023-03-01T01:26:48;26.53;;;16.03;;
3333;SDS011;1679;50.392;8.008;2023-03-01T01:29:15;28.13;;;15.43;;
3333;SDS011;1679;50.392;8.008;2023-03-01T01:31:41;24.80;;;14.73;;
3333;SDS011;1679;50.392;8.008;2023-03-01T01:34:09;33.33;;;16.47;;
3333;SDS011;1679;50.392;8.008;2023-03-01T01:36:39;19.17;;;14.10;;
3333;SDS011;1679;50.392;8.008;2023-03-01T01:39:04;18.60;;;13.10;;
3333;SDS011;1679;50.392;8.008;2023-03-01T01:41:31;18.00;;;12.90;;
3333;SDS011;1679;50.392;8.008;2023-03-01T01:44:13;22.00;;;14.47;;
3333;SDS011;1679;50.392;8.008;2023-03-01T01:49:31;22.57;;;12.30;;
3333;SDS011;1679;50.392;8.008;2023-03-01T01:52:11;20.50;;;13.20;;
3333;SDS011;1679;50.392;8.008;2023-03-01T01:57:22;17.87;;;11.90;;
3333;SDS011;1679;50.392;8.008;2023-03-01T01:59:54;19.53;;;12.47;;
3333;SDS011;1679;50.392;8.008;2023-03-01T02:02:24;17.37;;;12.77;;
3333;SDS011;1679;50.392;8.008;2023-03-01T02:04:52;19.43;;;12.97;;
3333;SDS011;1679;50.392;8.008;2023-03-01T02:07:25;17.30;;;12.20;;
3333;SDS011;1679;50.392;8.008;2023-03-01T02:09:51;21.43;;;12.50;;
3333;SDS011;1679;50.392;8.008;2023-03-01T02:12:19;19.70;;;12.07;;
3333;SDS011;1679;50.392;8.008;2023-03-01T02:14:47;18.53;;;14.07;;
3333;SDS011;1679;50.392;8.008;2023-03-01T02:17:14;16.30;;;12.20;;
3333;SDS011;1679;50.392;8.008;2023-03-01T02:19:57;20.00;;;12.67;;
3333;SDS011;1679;50.392;8.008;2023-03-01T02:22:44;19.33;;;13.23;;
3333;SDS011;1679;50.392;8.008;2023-03-01T02:30:36;16.13;;;11.30;;
3333;SDS011;1679;50.392;8.008;2023-03-01T02:33:02;20.03;;;12.07;;
3333;SDS011;1679;50.392;8.008;2023-03-01T02:35:29;17.70;;;13.07;;
3333;SDS011;1679;50.392;8.008;2023-03-01T02:37:58;19.20;;;13.40;;
3333;SDS011;1679;50.392;8.008;2023-03-01T02:40:25;20.87;;;13.70;;
3333;SDS011;1679;50.392;8.008;2023-03-01T02:42:55;19.03;;;12.70;;
3333;SDS011;1679;50.392;8.008;2023-03-01T02:45:22;16.50;;;12.17;;
3333;SDS011;1679;50.392;8.008;2023-03-01T02:47:48;21.40;;;13.10;;
3333;SDS011;1679;50.392;8.008;2023-03-01T02:50:27;22.40;;;14.10;;
3333;SDS011;1679;50.392;8.008;2023-03-01T02:53:08;25.03;;;14.97;;
3333;SDS011;1679;50.392;8.008;2023-03-01T02:55:41;21.50;;;14.30;;
3333;SDS011;1679;50.392;8.008;2023-03-01T02:58:06;23.63;;;14.00;;
3333;SDS011;1679;50.392;8.008;2023-03-01T03:00:34;23.17;;;14.53;;
3333;SDS011;1679;50.392;8.008;2023-03-01T03:03:04;19.27;;;14.07;;
3333;SDS011;1679;50.392;8.008;2023-03-01T03:05:31;21.13;;;12.90;;
3333;SDS011;1679;50.392;8.008;2023-03-01T03:07:58;18.70;;;12.83;;
3333;SDS011;1679;50.392;8.008;2023-03-01T03:10:29;20.90;;;14.27;;
3333;SDS011;1679;50.392;8.008;2023-03-01T03:12:58;19.87;;;14.47;;
3333;SDS011;1679;50.392;8.008;2023-03-01T03:15:28;20.37;;;14.03;;
3333;SDS011;1679;50.392;8.008;2023-03-01T03:17:55;22.17;;;14.03;;
3333;SDS011;1679;50.392;8.008;2023-03-01T03:20:24;21.47;;;14.17;;
3333;SDS011;1679;50.392;8.008;2023-03-01T03:22:52;19.30;;;13.70;;
3333;SDS011;1679;50.392;8.008;2023-03-01T03:25:19;18.37;;;13.13;;
3333;SDS011;1679;50.392;8.008;2023-03-01T03:27:46;23.57;;;14.40;;
3333;SDS011;1679;50.392;8.008;2023-03-01T03:30:15;19.00;;;13.03;;
3333;SDS011;1679;50.392;8.008;2023-03-01T03:32:45;22.17;;;13.70;;
3333;SDS011;1679;50.392;8.008;2023-03-01T03:35:18;23.80;;;15.03;;
3333;SDS011;1679;50.392;8.008;2023-03-01T03:37:45;21.23;;;13.63;;
3333;SDS011;1679;50.392;8.008;2023-03-01T03:40:39;23.70;;;14.10;;
3333;SDS011;1679;50.392;8.008;2023-03-01T03:43:07;25.90;;;14.47;;
3333;SDS011;1679;50.392;8.008;2023-03-01T03:45:37;19.90;;;13.53;;
3333;SDS011;1679;50.392;8.008;2023-03-01T03:48:07;22.30;;;13.77;;
3333;SDS011;1679;50.392;8.008;2023-03-01T03:50:34;22.33;;;14.37;;
3333;SDS011;1679;50.392;8.008;2023-03-01T03:53:01;22.13;;;12.97;;
3333;SDS011;1679;50.392;8.008;2023-03-01T03:55:28;18.77;;;13.10;;
3333;SDS011;1679;50.392;8.008;2023-03-01T03:57:56;22.53;;;13.90;;
3333;SDS011;1679;50.392;8.008;2023-03-01T04:00:23;20.00;;;12.93;;
3333;SDS011;1679;50.392;8.008;2023-03-01T04:02:49;21.53;;;13.33;;
3333;SDS011;1679;50.392;8.008;2023-03-01T04:05:17;20.17;;;13.47;;
3333;SDS011;1679;50.392;8.008;2023-03-01T04:07:44;19.50;;;12.80;;
3333;SDS011;1679;50.392;8.008;2023-03-01T04:10:11;20.27;;;13.07;;
3333;SDS011;1679;50.392;8.008;2023-03-01T04:12:41;17.63;;;12.47;;
3333;SDS011;1679;50.392;8.008;2023-03-01T04:15:11;18.83;;;12.70;;
3333;SDS011;1679;50.392;8.008;2023-03-01T04:17:40;19.67;;;12.80;;
3333;SDS011;1679;50.392;8.008;2023-03-01T04:20:08;23.30;;;13.90;;
3333;SDS011;1679;50.392;8.008;2023-03-01T04:22:35;22.30;;;13.60;;
3333;SDS011;1679;50.392;8.008;2023-03-01T04:25:03;22.13;;;14.80;;
3333;SDS011;1679;50.392;8.008;2023-03-01T04:27:31;20.97;;;13.47;;
3333;SDS011;1679;50.392;8.008;2023-03-01T04:30:01;23.90;;;15.20;;
3333;SDS011;1679;50.392;8.008;2023-03-01T04:32:28;27.23;;;14.83;;
3333;SDS011;1679;50.392;8.008;2023-03-01T04:34:53;22.70;;;14.47;;
3333;SDS011;1679;50.392;8.008;2023-03-01T04:37:19;25.87;;;14.20;;
3333;SDS011;1679;50.392;8.008;2023-03-01T04:39:44;23.10;;;14.50;;
3333;SDS011;1679;50.392;8.008;2023-03-01T04:42:10;23.70;;;14.63;;
3333;SDS011;1679;50.392;8.008;2023-03-01T04:44:36;25.80;;;15.63;;
3333;SDS011;1679;50.392;8.008;2023-03-01T04:47:02;24.33;;;14.87;;
3333;SDS011;1679;50.392;8.008;2023-03-01T04:49:28;23.10;;;14.53;;
3333;SDS011;1679;50.392;8.008;2023-03-01T04:51:54;22.33;;;14.63;;
3333;SDS011;1679;50.392;8.008;2023-03-01T04:54:23;23.20;;;14.70;;
3333;SDS011;1679;50.392;8.008;2023-03-01T04:56:52;22.03;;;14.77;;
3333;SDS011;1679;50.392;8.008;2023-03-01T04:59:18;24.70;;;15.10;;
3333;SDS011;1679;50.392;8.008;2023-03-01T05:01:47;28.00;;;15.10;;
3333;SDS011;1679;50.392;8.008;2023-03-01T05:04:13;23.77;;;14.10;;
3333;SDS011;1679;50.392;8.008;2023-03-01T05:06:39;19.77;;;13.33;;
3333;SDS011;1679;50.392;8.008;2023-03-01T05:09:04;28.67;;;16.00;;
3333;SDS011;1679;50.392;8.008;2023-03-01T05:11:30;28.20;;;19.00;;
3333;SDS011;1679;50.392;8.008;2023-03-01T05:14:00;25.50;;;15.50;;
3333;SDS011;1679;50.392;8.008;2023-03-01T05:16:34;27.07;;;15.00;;
3333;SDS011;1679;50.392;8.008;2023-03-01T05:19:02;21.90;;;15.00;;
3333;SDS011;1679;50.392;8.008;2023-03-01T05:21:36;22.00;;;14.67;;
3333;SDS011;1679;50.392;8.008;2023-03-01T05:24:25;20.63;;;15.13;;
3333;SDS011;1679;50.392;8.008;2023-03-01T05:26:51;26.50;;;14.60;;
3333;SDS011;1679;50.392;8.008;2023-03-01T05:29:17;21.97;;;14.20;;
3333;SDS011;1679;50.392;8.008;2023-03-01T05:31:52;22.17;;;14.80;;
3333;SDS011;1679;50.392;8.008;2023-03-01T05:34:26;26.07;;;14.80;;
3333;SDS011;1679;50.392;8.008;2023-03-01T05:36:55;22.73;;;14.43;;
3333;SDS011;1679;50.392;8.008;2023-03-01T05:39:25;27.20;;;14.60;;
3333;SDS011;1679;50.392;8.008;2023-03-01T05:41:55;25.33;;;15.47;;
3333;SDS011;1679;50.392;8.008;2023-03-01T05:44:25;20.97;;;14.47;;
3333;SDS011;1679;50.392;8.008;2023-03-01T05:46:55;23.80;;;14.27;;
3333;SDS011;1679;50.392;8.008;2023-03-01T05:49:21;23.77;;;15.00;;
3333;SDS011;1679;50.392;8.008;2023-03-01T05:51:50;25.07;;;15.30;;
3333;SDS011;1679;50.392;8.008;2023-03-01T05:54:18;24.90;;;14.87;;
3333;SDS011;1679;50.392;8.008;2023-03-01T05:56:44;26.17;;;14.67;;
3333;SDS011;1679;50.392;8.008;2023-03-01T05:59:10;21.50;;;14.53;;
3333;SDS011;1679;50.392;8.008;2023-03-01T06:01:36;24.90;;;15.30;;
3333;SDS011;1679;50.392;8.008;2023-03-01T06:04:02;25.97;;;15.13;;
3333;SDS011;1679;50.392;8.008;2023-03-01T06:06:28;23.00;;;15.10;;
3333;SDS011;1679;50.392;8.008;2023-03-01T06:08:54;22.70;;;14.03;;
3333;SDS011;1679;50.392;8.008;2023-03-01T06:11:21;21.60;;;14.13;;
3333;SDS011;1679;50.392;8.008;2023-03-01T06:13:46;29.43;;;18.20;;
3333;SDS011;1679;50.392;8.008;2023-03-01T06:16:14;33.57;;;19.20;;
3333;SDS011;1679;50.392;8.008;2023-03-01T06:18:39;31.33;;;18.43;;
3333;SDS011;1679;50.392;8.008;2023-03-01T06:21:05;34.57;;;19.77;;
3333;SDS011;1679;50.392;8.008;2023-03-01T06:23:32;27.93;;;16.47;;
3333;SDS011;1679;50.392;8.008;2023-03-01T06:25:58;27.70;;;16.03;;
3333;SDS011;1679;50.392;8.008;2023-03-01T06:28:26;30.20;;;17.63;;
3333;SDS011;1679;50.392;8.008;2023-03-01T06:30:51;33.00;;;17.37;;
3333;SDS011;1679;50.392;8.008;2023-03-01T06:33:18;30.20;;;18.07;;
3333;SDS011;1679;50.392;8.008;2023-03-01T06:35:45;34.57;;;19.07;;
3333;SDS011;1679;50.392;8.008;2023-03-01T06:38:11;30.93;;;18.53;;
3333;SDS011;1679;50.392;8.008;2023-03-01T06:40:39;32.70;;;19.17;;
3333;SDS011;1679;50.392;8.008;2023-03-01T06:43:05;40.67;;;20.43;;
3333;SDS011;1679;50.392;8.008;2023-03-01T06:45:32;33.33;;;20.17;;
3333;SDS011;1679;50.392;8.008;2023-03-01T06:48:01;34.63;;;20.60;;
3333;SDS011;1679;50.392;8.008;2023-03-01T06:50:28;35.50;;;20.90;;
3333;SDS011;1679;50.392;8.008;2023-03-01T06:52:57;39.03;;;21.93;;
3333;SDS011;1679;50.392;8.008;2023-03-01T06:55:23;40.40;;;21.70;;
3333;SDS011;1679;50.392;8.008;2023-03-01T06:57:48;35.27;;;21.50;;
3333;SDS011;1679;50.392;8.008;2023-03-01T07:00:20;35.23;;;20.00;;
3333;SDS011;1679;50.392;8.008;2023-03-01T07:02:46;40.03;;;22.53;;
3333;SDS011;1679;50.392;8.008;2023-03-01T07:05:11;34.30;;;20.50;;
3333;SDS011;1679;50.392;8.008;2023-03-01T07:07:38;32.03;;;19.70;;
3333;SDS011;1679;50.392;8.008;2023-03-01T07:10:04;32.57;;;19.00;;
3333;SDS011;1679;50.392;8.008;2023-03-01T07:12:30;33.23;;;20.27;;
3333;SDS011;1679;50.392;8.008;2023-03-01T07:14:57;33.73;;;20.27;;
3333;SDS011;1679;50.392;8.008;2023-03-01T07:17:23;37.37;;;20.57;;
3333;SDS011;1679;50.392;8.008;2023-03-01T07:19:49;35.07;;;20.10;;
3333;SDS011;1679;50.392;8.008;2023-03-01T07:22:16;44.50;;;24.50;;
3333;SDS011;1679;50.392;8.008;2023-03-01T07:24:41;36.67;;;21.57;;
3333;SDS011;1679;50.392;8.008;2023-03-01T07:27:07;28.80;;;19.70;;
3333;SDS011;1679;50.392;8.008;2023-03-01T07:29:33;35.07;;;21.50;;
3333;SDS011;1679;50.392;8.008;2023-03-01T07:32:01;29.27;;;20.23;;
3333;SDS011;1679;50.392;8.008;2023-03-01T07:34:27;33.03;;;19.17;;
3333;SDS011;1679;50.392;8.008;2023-03-01T07:36:52;30.70;;;18.23;;
3333;SDS011;1679;50.392;8.008;2023-03-01T07:39:18;26.07;;;17.27;;
3333;SDS011;1679;50.392;8.008;2023-03-01T07:41:44;28.67;;;18.40;;
3333;SDS011;1679;50.392;8.008;2023-03-01T07:44:09;26.33;;;16.37;;
3333;SDS011;1679;50.392;8.008;2023-03-01T07:46:37;29.03;;;15.67;;
3333;SDS011;1679;50.392;8.008;2023-03-01T07:49:03;24.73;;;15.43;;
3333;SDS011;1679;50.392;8.008;2023-03-01T07:51:29;24.87;;;15.97;;
3333;SDS011;1679;50.392;8.008;2023-03-01T07:53:55;25.27;;;15.50;;
3333;SDS011;1679;50.392;8.008;2023-03-01T07:56:20;21.70;;;13.87;;
3333;SDS011;1679;50.392;8.008;2023-03-01T07:58:46;25.50;;;17.27;;
3333;SDS011;1679;50.392;8.008;2023-03-01T08:01:14;25.90;;;15.60;;
3333;SDS011;1679;50.392;8.008;2023-03-01T08:03:40;26.63;;;17.27;;
3333;SDS011;1679;50.392;8.008;2023-03-01T08:06:08;30.30;;;16.20;;
3333;SDS011;1679;50.392;8.008;2023-03-01T08:08:35;24.87;;;16.13;;
3333;SDS011;1679;50.392;8.008;2023-03-01T08:11:01;26.77;;;16.90;;
3333;SDS011;1679;50.392;8.008;2023-03-01T08:13:29;20.30;;;14.10;;
3333;SDS011;1679;50.392;8.008;2023-03-01T08:16:00;25.73;;;17.07;;
3333;SDS011;1679;50.392;8.008;2023-03-01T08:18:27;25.97;;;17.30;;
3333;SDS011;1679;50.392;8.008;2023-03-01T08:20:52;24.10;;;16.30;;
3333;SDS011;1679;50.392;8.008;2023-03-01T08:23:19;26.57;;;15.90;;
3333;SDS011;1679;50.392;8.008;2023-03-01T08:25:44;28.23;;;15.60;;
3333;SDS011;1679;50.392;8.008;2023-03-01T08:28:10;27.67;;;16.20;;
3333;SDS011;1679;50.392;8.008;2023-03-01T08:30:35;23.87;;;16.30;;
3333;SDS011;1679;50.392;8.008;2023-03-01T08:33:01;25.63;;;15.97;;
3333;SDS011;1679;50.392;8.008;2023-03-01T08:35:26;22.40;;;15.40;;
3333;SDS011;1679;50.392;8.008;2023-03-01T08:37:52;21.53;;;15.07;;
3333;SDS011;1679;50.392;8.008;2023-03-01T08:40:17;20.43;;;15.40;;
3333;SDS011;1679;50.392;8.008;2023-03-01T08:42:43;23.13;;;14.67;;
3333;SDS011;1679;50.392;8.008;2023-03-01T08:45:11;30.17;;;16.10;;
3333;SDS011;1679;50.392;8.008;2023-03-01T08:47:37;23.90;;;15.03;;
3333;SDS011;1679;50.392;8.008;2023-03-01T08:50:03;21.43;;;16.10;;
3333;SDS011;1679;50.392;8.008;2023-03-01T08:52:29;23.03;;;14.60;;
3333;SDS011;1679;50.392;8.008;2023-03-01T08:54:55;25.97;;;15.47;;
3333;SDS011;1679;50.392;8.008;2023-03-01T08:57:21;19.63;;;14.33;;
3333;SDS011;1679;50.392;8.008;2023-03-01T08:59:46;25.07;;;16.20;;
3333;SDS011;1679;50.392;8.008;2023-03-01T09:02:13;21.33;;;13.90;;
3333;SDS011;1679;50.392;8.008;2023-03-01T09:04:40;23.93;;;16.13;;
3333;SDS011;1679;50.392;8.008;2023-03-01T09:07:06;21.43;;;14.13;;
3333;SDS011;1679;50.392;8.008;2023-03-01T09:09:32;19.77;;;14.70;;
3333;SDS011;1679;50.392;8.008;2023-03-01T09:11:58;20.17;;;13.73;;
3333;SDS011;1679;50.392;8.008;2023-03-01T09:14:23;22.07;;;14.83;;
3333;SDS011;1679;50.392;8.008;2023-03-01T09:16:51;22.00;;;14.33;;
3333;SDS011;1679;50.392;8.008;2023-03-01T09:19:16;21.50;;;14.17;;
3333;SDS011;1679;50.392;8.008;2023-03-01T09:21:43;21.67;;;14.20;;
3333;SDS011;1679;50.392;8.008;2023-03-01T09:24:18;22.33;;;14.10;;
3333;SDS011;1679;50.392;8.008;2023-03-01T09:26:47;20.23;;;15.20;;
3333;SDS011;1679;50.392;8.008;2023-03-01T09:29:13;22.37;;;14.10;;
3333;SDS011;1679;50.392;8.008;2023-03-01T09:31:40;19.53;;;14.03;;
3333;SDS011;1679;50.392;8.008;2023-03-01T09:34:06;21.53;;;13.10;;
3333;SDS011;1679;50.392;8.008;2023-03-01T09:36:33;22.40;;;13.10;;
3333;SDS011;1679;50.392;8.008;2023-03-01T09:38:58;17.00;;;12.83;;
3333;SDS011;1679;50.392;8.008;2023-03-01T09:46:56;17.83;;;12.80;;
3333;SDS011;1679;50.392;8.008;2023-03-01T09:49:29;18.53;;;13.27;;
3333;SDS011;1679;50.392;8.008;2023-03-01T09:54:46;18.33;;;13.40;;
3333;SDS011;1679;50.392;8.008;2023-03-01T09:57:30;15.67;;;12.50;;
3333;SDS011;1679;50.392;8.008;2023-03-01T10:00:12;19.17;;;13.83;;
3333;SDS011;1679;50.392;8.008;2023-03-01T10:03:01;21.80;;;13.50;;
3333;SDS011;1679;50.392;8.008;2023-03-01T10:05:40;19.17;;;12.80;;
3333;SDS011;1679;50.392;8.008;2023-03-01T10:08:37;16.73;;;12.10;;
3333;SDS011;1679;50.392;8.008;2023-03-01T10:11:21;23.90;;;12.57;;
3333;SDS011;1679;50.392;8.008;2023-03-01T10:14:04;19.60;;;12.23;;
3333;SDS011;1679;50.392;8.008;2023-03-01T10:16:42;20.67;;;14.00;;
3333;SDS011;1679;50.392;8.008;2023-03-01T10:20:05;18.90;;;13.23;;
3333;SDS011;1679;50.392;8.008;2023-03-01T10:24:48;26.60;;;13.77;;
3333;SDS011;1679;50.392;8.008;2023-03-01T10:27:22;19.10;;;12.53;;
3333;SDS011;1679;50.392;8.008;2023-03-01T10:30:00;15.30;;;11.97;;
3333;SDS011;1679;50.392;8.008;2023-03-01T10:32:36;16.97;;;12.73;;
3333;SDS011;1679;50.392;8.008;2023-03-01T10:35:14;18.50;;;12.03;;
3333;SDS011;1679;50.392;8.008;2023-03-01T10:40:33;20.50;;;13.30;;
3333;SDS011;1679;50.392;8.008;2023-03-01T10:43:01;20.90;;;13.27;;
3333;SDS011;1679;50.392;8.008;2023-03-01T10:50:38;18.57;;;12.03;;
3333;SDS011;1679;50.392;8.008;2023-03-01T10:55:47;21.70;;;13.43;;
3333;SDS011;1679;50.392;8.008;2023-03-01T10:58:23;16.80;;;12.57;;
3333;SDS011;1679;50.392;8.008;2023-03-01T11:00:50;14.50;;;12.17;;
3333;SDS011;1679;50.392;8.008;2023-03-01T11:03:24;17.50;;;12.10;;
3333;SDS011;1679;50.392;8.008;2023-03-01T11:08:46;14.40;;;11.20;;
3333;SDS011;1679;50.392;8.008;2023-03-01T11:11:14;18.20;;;12.53;;
3333;SDS011;1679;50.392;8.008;2023-03-01T11:16:44;17.83;;;12.93;;
3333;SDS011;1679;50.392;8.008;2023-03-01T11:21:41;18.30;;;12.27;;
3333;SDS011;1679;50.392;8.008;2023-03-01T11:24:30;15.50;;;11.60;;
3333;SDS011;1679;50.392;8.008;2023-03-01T11:27:04;16.83;;;12.63;;
3333;SDS011;1679;50.392;8.008;2023-03-01T11:29:46;17.70;;;11.77;;
3333;SDS011;1679;50.392;8.008;2023-03-01T11:32:40;13.73;;;10.40;;
3333;SDS011;1679;50.392;8.008;2023-03-01T11:35:15;14.77;;;11.07;;
3333;SDS011;1679;50.392;8.008;2023-03-01T11:37:59;13.47;;;11.00;;
3333;SDS011;1679;50.392;8.008;2023-03-01T11:43:12;16.80;;;12.07;;
3333;SDS011;1679;50.392;8.008;2023-03-01T11:48:41;15.90;;;11.73;;
3333;SDS011;1679;50.392;8.008;2023-03-01T11:51:25;19.13;;;11.30;;
3333;SDS011;1679;50.392;8.008;2023-03-01T12:08:14;11.63;;;10.13;;
3333;SDS011;1679;50.392;8.008;2023-03-01T12:10:54;16.00;;;10.00;;
3333;SDS011;1679;50.392;8.008;2023-03-01T12:16:35;11.53;;;9.10;;
3333;SDS011;1679;50.392;8.008;2023-03-01T12:22:21;12.80;;;9.60;;
3333;SDS011;1679;50.392;8.008;2023-03-01T12:38:22;13.50;;;10.37;;
3333;SDS011;1679;50.392;8.008;2023-03-01T12:41:06;11.43;;;9.10;;
3333;SDS011;1679;50.392;8.008;2023-03-01T12:51:51;13.77;;;10.00;;
3333;SDS011;1679;50.392;8.008;2023-03-01T12:54:27;11.20;;;9.77;;
3333;SDS011;1679;50.392;8.008;2023-03-01T12:56:55;12.90;;;9.40;;
3333;SDS011;1679;50.392;8.008;2023-03-01T13:02:45;11.17;;;8.53;;
3333;SDS011;1679;50.392;8.008;2023-03-01T13:07:58;10.57;;;8.70;;
3333;SDS011;1679;50.392;8.008;2023-03-01T13:10:57;12.00;;;9.87;;
3333;SDS011;1679;50.392;8.008;2023-03-01T13:13:26;16.33;;;9.30;;
3333;SDS011;1679;50.392;8.008;2023-03-01T13:15:52;12.13;;;8.80;;
3333;SDS011;1679;50.392;8.008;2023-03-01T13:20:48;12.80;;;8.60;;
3333;SDS011;1679;50.392;8.008;2023-03-01T13:26:00;11.10;;;8.93;;
3333;SDS011;1679;50.392;8.008;2023-03-01T13:31:09;15.73;;;9.17;;
3333;SDS011;1679;50.392;8.008;2023-03-01T13:36:50;11.17;;;9.10;;
3333;SDS011;1679;50.392;8.008;2023-03-01T13:39:27;11.27;;;8.47;;
3333;SDS011;1679;50.392;8.008;2023-03-01T13:41:57;15.03;;;9.23;;
3333;SDS011;1679;50.392;8.008;2023-03-01T13:44:37;9.47;;;8.40;;
3333;SDS011;1679;50.392;8.008;2023-03-01T13:49:36;12.00;;;9.77;;
3333;SDS011;1679;50.392;8.008;2023-03-01T13:52:36;11.07;;;9.17;;
3333;SDS011;1679;50.392;8.008;2023-03-01T13:55:16;13.10;;;8.00;;
3333;SDS011;1679;50.392;8.008;2023-03-01T13:57:48;10.50;;;9.00;;
3333;SDS011;1679;50.392;8.008;2023-03-01T14:00:29;10.60;;;8.93;;
3333;SDS011;1679;50.392;8.008;2023-03-01T14:03:03;10.40;;;9.37;;
3333;SDS011;1679;50.392;8.008;2023-03-01T14:05:39;9.90;;;8.83;;
3333;SDS011;1679;50.392;8.008;2023-03-01T14:08:20;16.83;;;10.10;;
3333;SDS011;1679;50.392;8.008;2023-03-01T14:10:58;11.23;;;9.27;;
3333;SDS011;1679;50.392;8.008;2023-03-01T14:13:54;11.87;;;9.30;;
3333;SDS011;1679;50.392;8.008;2023-03-01T14:19:12;12.67;;;9.07;;
3333;SDS011;1679;50.392;8.008;2023-03-01T14:21:58;10.37;;;8.57;;
3333;SDS011;1679;50.392;8.008;2023-03-01T14:24:52;10.30;;;8.27;;
3333;SDS011;1679;50.392;8.008;2023-03-01T14:27:21;11.73;;;9.00;;
3333;SDS011;1679;50.392;8.008;2023-03-01T14:29:54;12.83;;;8.60;;
3333;SDS011;1679;50.392;8.008;2023-03-01T14:32:26;13.47;;;9.10;;
3333;SDS011;1679;50.392;8.008;2023-03-01T14:34:59;11.30;;;8.13;;
3333;SDS011;1679;50.392;8.008;2023-03-01T14:37:32;10.60;;;8.20;;
3333;SDS011;1679;50.392;8.008;2023-03-01T14:40:03;10.23;;;8.57;;
3333;SDS011;1679;50.392;8.008;2023-03-01T14:42:35;12.80;;;10.33;;
3333;SDS011;1679;50.392;8.008;2023-03-01T14:45:02;10.10;;;9.03;;
3333;SDS011;1679;50.392;8.008;2023-03-01T14:47:32;11.20;;;8.90;;
3333;SDS011;1679;50.392;8.008;2023-03-01T14:50:05;10.40;;;8.50;;
3333;SDS011;1679;50.392;8.008;2023-03-01T14:52:57;9.50;;;8.30;;
3333;SDS011;1679;50.392;8.008;2023-03-01T14:55:37;11.30;;;8.63;;
3333;SDS011;1679;50.392;8.008;2023-03-01T14:58:12;10.13;;;8.27;;
3333;SDS011;1679;50.392;8.008;2023-03-01T15:00:39;9.10;;;8.07;;
3333;SDS011;1679;50.392;8.008;2023-03-01T15:03:41;12.40;;;8.30;;
3333;SDS011;1679;50.392;8.008;2023-03-01T15:06:09;9.37;;;8.03;;
3333;SDS011;1679;50.392;8.008;2023-03-01T15:08:37;10.20;;;8.23;;
3333;SDS011;1679;50.392;8.008;2023-03-01T15:11:22;8.50;;;7.70;;
3333;SDS011;1679;50.392;8.008;2023-03-01T15:13:51;9.83;;;7.00;;
3333;SDS011;1679;50.392;8.008;2023-03-01T15:16:21;14.03;;;9.03;;
3333;SDS011;1679;50.392;8.008;2023-03-01T15:18:54;13.60;;;8.63;;
3333;SDS011;1679;50.392;8.008;2023-03-01T15:21:27;10.73;;;8.20;;
3333;SDS011;1679;50.392;8.008;2023-03-01T15:26:56;10.17;;;8.53;;
3333;SDS011;1679;50.392;8.008;2023-03-01T15:29:24;10.13;;;7.57;;
3333;SDS011;1679;50.392;8.008;2023-03-01T15:32:02;8.83;;;7.80;;
3333;SDS011;1679;50.392;8.008;2023-03-01T15:36:57;9.83;;;7.90;;
3333;SDS011;1679;50.392;8.008;2023-03-01T15:39:31;8.40;;;7.13;;
3333;SDS011;1679;50.392;8.008;2023-03-01T15:42:02;8.77;;;7.90;;
3333;SDS011;1679;50.392;8.008;2023-03-01T15:44:30;8.70;;;7.20;;
3333;SDS011;1679;50.392;8.008;2023-03-01T15:46:58;10.10;;;7.70;;
3333;SDS011;1679;50.392;8.008;2023-03-01T15:49:37;10.20;;;8.30;;
3333;SDS011;1679;50.392;8.008;2023-03-01T15:52:10;8.30;;;6.70;;
3333;SDS011;1679;50.392;8.008;2023-03-01T15:54:42;10.90;;;8.37;;
3333;SDS011;1679;50.392;8.008;2023-03-01T15:57:10;8.80;;;7.60;;
3333;SDS011;1679;50.392;8.008;2023-03-01T15:59:39;10.57;;;8.03;;
3333;SDS011;1679;50.392;8.008;2023-03-01T16:02:11;8.43;;;7.40;;
3333;SDS011;1679;50.392;8.008;2023-03-01T16:04:40;10.83;;;6.40;;
3333;SDS011;1679;50.392;8.008;2023-03-01T16:07:05;12.87;;;8.00;;
3333;SDS011;1679;50.392;8.008;2023-03-01T16:09:31;10.43;;;8.00;;
3333;SDS011;1679;50.392;8.008;2023-03-01T16:11:57;10.73;;;7.53;;
3333;SDS011;1679;50.392;8.008;2023-03-01T16:14:23;11.20;;;8.10;;
3333;SDS011;1679;50.392;8.008;2023-03-01T16:16:50;12.47;;;8.13;;
3333;SDS011;1679;50.392;8.008;2023-03-01T16:19:15;11.30;;;7.60;;
3333;SDS011;1679;50.392;8.008;2023-03-01T16:21:41;8.83;;;7.93;;
3333;SDS011;1679;50.392;8.008;2023-03-01T16:24:08;12.00;;;7.90;;
3333;SDS011;1679;50.392;8.008;2023-03-01T16:26:36;10.83;;;8.00;;
3333;SDS011;1679;50.392;8.008;2023-03-01T16:29:02;11.03;;;7.80;;
3333;SDS011;1679;50.392;8.008;2023-03-01T16:31:28;11.70;;;8.00;;
3333;SDS011;1679;50.392;8.008;2023-03-01T16:33:55;10.00;;;7.30;;
3333;SDS011;1679;50.392;8.008;2023-03-01T16:36:22;9.00;;;7.67;;
3333;SDS011;1679;50.392;8.008;2023-03-01T16:38:50;8.63;;;7.70;;
3333;SDS011;1679;50.392;8.008;2023-03-01T16:41:17;8.97;;;7.57;;
3333;SDS011;1679;50.392;8.008;2023-03-01T16:43:45;7.40;;;6.70;;
3333;SDS011;1679;50.392;8.008;2023-03-01T16:46:14;10.13;;;6.73;;
3333;SDS011;1679;50.392;8.008;2023-03-01T16:48:45;9.40;;;8.00;;
3333;SDS011;1679;50.392;8.008;2023-03-01T16:51:12;10.77;;;7.53;;
3333;SDS011;1679;50.392;8.008;2023-03-01T16:53:38;7.70;;;6.47;;
3333;SDS011;1679;50.392;8.008;2023-03-01T16:56:06;7.73;;;6.63;;
3333;SDS011;1679;50.392;8.008;2023-03-01T16:58:34;9.73;;;8.00;;
3333;SDS011;1679;50.392;8.008;2023-03-01T17:01:04;11.87;;;8.10;;
3333;SDS011;1679;50.392;8.008;2023-03-01T17:03:31;10.00;;;7.50;;
3333;SDS011;1679;50.392;8.008;2023-03-01T17:06:00;9.13;;;7.47;;